Time;durP1;ratioP1;P1;durP2;ratioP2;P2;SDS_P1;SDS_P2;PMS_P1;PMS_P2;Temp;Humidity;BMP_temperature;BMP_pressure;BME280_temperature;BME280_humidity;BME280_pressure;Samples;Min_cycle;Max_cycle;Signal;HPM_P1;HPM_P2
2021/11/27 00:00:44;;;;;;;2.83;1.80;;;;;;;4.32;74.97;97710.47;5078496;28;20422;-80
2021/11/27 00:03:11;;;;;;;2.97;2.07;;;;;;;4.36;73.95;97706.19;5074584;28;20495;-81
2021/11/27 00:05:38;;;;;;;3.03;1.88;;;;;;;4.32;74.59;97710.47;5082692;28;20480;-81
2021/11/27 00:08:05;;;;;;;4.03;1.88;;;;;;;4.34;74.54;97707.53;5072368;28;20494;-80
2021/11/27 00:10:31;;;;;;;3.83;1.70;;;;;;;4.33;74.75;97703.25;5074006;28;20410;-81
2021/11/27 00:12:59;;;;;;;3.87;1.50;;;;;;;4.37;74.07;97715.03;5071861;28;20489;-81
2021/11/27 00:15:26;;;;;;;1.95;1.55;;;;;;;4.38;74.21;97703.25;5088516;28;20400;-81
2021/11/27 00:17:52;;;;;;;3.45;1.60;;;;;;;4.29;75.26;97696.81;5074893;28;20403;-81
2021/11/27 00:20:22;;;;;;;5.40;1.83;;;;;;;4.29;75.57;97697.63;5082144;28;20413;-81
2021/11/27 00:22:47;;;;;;;4.75;1.88;;;;;;;4.26;75.59;97700.03;5081098;28;20450;-80
2021/11/27 00:25:14;;;;;;;1.53;1.43;;;;;;;4.30;75.39;97707.28;5063551;28;20437;-81
2021/11/27 00:27:40;;;;;;;2.60;1.80;;;;;;;4.30;75.55;97695.75;5078582;28;20505;-81
2021/11/27 00:30:09;;;;;;;3.67;1.80;;;;;;;4.27;75.92;97689.06;5075665;28;20412;-81
2021/11/27 00:32:35;;;;;;;3.23;2.00;;;;;;;4.25;76.10;97696.53;5071274;28;20899;-81
2021/11/27 00:35:00;;;;;;;2.40;1.57;;;;;;;4.19;76.39;97693.09;5072690;28;20491;-81
2021/11/27 00:37:26;;;;;;;2.20;1.60;;;;;;;4.24;76.64;97683.44;5085407;28;20421;-81
2021/11/27 00:39:51;;;;;;;1.85;1.33;;;;;;;4.27;76.45;97680.22;5084597;28;20472;-80
2021/11/27 00:42:17;;;;;;;2.10;1.48;;;;;;;4.26;76.12;97678.59;5071655;28;20411;-81
2021/11/27 00:44:42;;;;;;;4.43;1.63;;;;;;;4.32;75.72;97672.94;5086195;28;20397;-80
2021/11/27 00:47:07;;;;;;;3.80;1.70;;;;;;;4.27;76.34;97672.16;5073793;28;20834;-81
2021/11/27 00:49:33;;;;;;;2.23;1.30;;;;;;;4.23;76.24;97673.78;5073005;28;20411;-81
2021/11/27 00:51:59;;;;;;;2.00;1.42;;;;;;;4.24;76.14;97670.03;5057726;28;20935;-81
2021/11/27 00:54:24;;;;;;;2.20;1.27;;;;;;;4.25;75.50;97659.03;5055586;28;20411;-80
2021/11/27 00:56:49;;;;;;;2.20;1.15;;;;;;;4.25;75.88;97658.25;5075657;28;20390;-81
2021/11/27 00:59:16;;;;;;;1.87;1.37;;;;;;;4.36;75.51;97643.72;5083189;28;20417;-80
2021/11/27 01:01:43;;;;;;;2.88;1.27;;;;;;;4.39;75.56;97645.84;5093827;28;20474;-81
2021/11/27 01:04:09;;;;;;;2.13;1.00;;;;;;;4.35;75.46;97645.59;5070998;28;20407;-81
2021/11/27 01:06:34;;;;;;;1.95;0.90;;;;;;;4.42;75.03;97630.03;5088117;28;20417;-80
2021/11/27 01:09:07;;;;;;;2.05;1.02;;;;;;;4.43;75.08;97623.59;5075928;28;20402;-81
2021/11/27 01:11:36;;;;;;;2.60;0.90;;;;;;;4.42;75.45;97626.53;5079747;28;20407;-80
2021/11/27 01:14:07;;;;;;;2.23;0.90;;;;;;;4.39;75.39;97619.84;5084921;28;20777;-81
2021/11/27 01:16:35;;;;;;;1.13;0.90;;;;;;;4.43;75.15;97615.53;5078164;28;20422;-80
2021/11/27 01:19:01;;;;;;;2.10;1.25;;;;;;;4.44;75.06;97625.22;5071352;28;20771;-81
2021/11/27 01:21:32;;;;;;;0.67;0.67;;;;;;;4.46;75.13;97622.22;5072966;28;20579;-80
2021/11/27 01:24:03;;;;;;;1.67;0.68;;;;;;;4.51;74.52;97622.22;5053588;28;20493;-81
2021/11/27 01:26:30;;;;;;;1.20;0.77;;;;;;;4.54;75.61;97630.53;5079379;28;20407;-81
2021/11/27 01:28:56;;;;;;;2.22;0.75;;;;;;;4.54;75.72;97632.41;5076032;28;20410;-81
2021/11/27 01:31:22;;;;;;;4.40;1.20;;;;;;;4.56;75.78;97639.09;5061789;28;20420;-81
2021/11/27 01:33:48;;;;;;;1.20;0.60;;;;;;;4.56;75.82;97628.38;5064800;28;20412;-81
2021/11/27 01:36:13;;;;;;;1.93;0.87;;;;;;;4.58;76.37;97628.88;5087651;28;20866;-81
2021/11/27 01:38:38;;;;;;;2.20;1.30;;;;;;;4.57;76.86;97624.63;5076087;28;20424;-80
2021/11/27 01:41:04;;;;;;;0.80;0.80;;;;;;;4.44;77.48;97622.53;5080809;28;20387;-81
2021/11/27 01:43:31;;;;;;;3.42;0.90;;;;;;;4.47;77.74;97623.84;5074680;28;20407;-81
2021/11/27 01:45:56;;;;;;;1.25;0.90;;;;;;;4.47;78.25;97623.84;5072162;28;20422;-81
2021/11/27 01:48:23;;;;;;;2.00;0.98;;;;;;;4.50;78.57;97612.56;5094093;28;20407;-81
2021/11/27 01:51:15;;;;;;;1.10;0.85;;;;;;;4.45;78.61;97605.34;5078791;28;20410;-80
2021/11/27 01:53:42;;;;;;;0.80;0.80;;;;;;;4.44;78.79;97617.16;5072821;28;20412;-81
2021/11/27 01:56:11;;;;;;;1.05;0.82;;;;;;;4.47;78.74;97611.25;5077950;28;20888;-81
2021/11/27 01:58:38;;;;;;;2.05;1.10;;;;;;;4.41;78.80;97609.63;5074481;28;20403;-81
2021/11/27 02:01:08;;;;;;;1.95;1.00;;;;;;;4.40;78.79;97613.41;5079285;28;20406;-81
2021/11/27 02:03:33;;;;;;;1.30;0.70;;;;;;;4.39;78.88;97605.63;5059603;28;20394;-81
2021/11/27 02:05:59;;;;;;;2.13;0.97;;;;;;;4.40;78.80;97601.88;5071919;28;20441;-81
2021/11/27 02:08:25;;;;;;;1.25;0.73;;;;;;;4.43;78.80;97593.28;5069554;28;20413;-81
2021/11/27 02:10:52;;;;;;;0.65;0.65;;;;;;;4.49;78.91;97587.63;5073353;28;20441;-80
2021/11/27 02:13:17;;;;;;;0.68;0.60;;;;;;;4.49;78.92;97594.88;5084132;28;20413;-81
2021/11/27 02:15:43;;;;;;;1.30;0.67;;;;;;;4.41;79.42;97582.81;5085077;28;20392;-81
2021/11/27 02:18:08;;;;;;;1.40;0.70;;;;;;;4.45;79.20;97589.25;5053161;28;20427;-81
2021/11/27 02:20:37;;;;;;;0.70;0.70;;;;;;;4.37;79.46;97586.34;5051386;28;20909;-81
2021/11/27 02:23:02;;;;;;;1.50;1.40;;;;;;;4.40;80.00;97580.44;5070328;28;20904;-82
2021/11/27 02:25:30;;;;;;;1.00;0.77;;;;;;;4.42;80.07;97583.63;5082789;28;20404;-81
2021/11/27 02:27:56;;;;;;;0.90;0.90;;;;;;;4.45;79.65;97588.44;5070288;28;20408;-80
2021/11/27 02:30:22;;;;;;;1.70;0.60;;;;;;;4.37;80.11;97583.66;5074870;28;20786;-80
2021/11/27 02:32:48;;;;;;;2.05;0.60;;;;;;;4.38;80.09;97582.59;5086589;28;20471;-81
2021/11/27 02:35:14;;;;;;;0.77;0.65;;;;;;;4.40;80.14;97567.03;5076761;28;20403;-81
2021/11/27 02:37:39;;;;;;;0.90;0.60;;;;;;;4.39;80.42;97574.25;5074499;28;20419;-80
2021/11/27 02:40:07;;;;;;;0.47;0.47;;;;;;;4.40;80.51;97577.75;5075222;28;20556;-81
2021/11/27 02:42:33;;;;;;;4.55;1.15;;;;;;;4.39;80.78;97578.81;5075629;28;20784;-81
2021/11/27 02:44:58;;;;;;;1.08;0.70;;;;;;;4.41;81.31;97574.00;5071916;28;20414;-81
2021/11/27 02:47:23;;;;;;;2.63;0.90;;;;;;;4.43;81.04;97571.84;5078447;28;20397;-81
2021/11/27 02:49:49;;;;;;;0.47;0.47;;;;;;;4.39;81.49;97571.59;5096746;28;20768;-81
2021/11/27 02:52:14;;;;;;;0.70;0.63;;;;;;;4.37;81.49;97571.06;5071569;28;20463;-81
2021/11/27 02:54:40;;;;;;;0.70;0.70;;;;;;;4.34;82.45;97576.19;5073653;28;20403;-81
2021/11/27 02:57:06;;;;;;;1.07;0.67;;;;;;;4.38;81.78;97569.97;5081384;28;20420;-81
2021/11/27 02:59:31;;;;;;;0.70;0.70;;;;;;;4.45;81.43;97561.63;5070632;28;20485;-81
2021/11/27 03:02:00;;;;;;;1.80;0.60;;;;;;;4.47;81.50;97572.91;5083015;28;20402;-81
2021/11/27 03:04:27;;;;;;;0.70;0.70;;;;;;;4.46;81.73;97555.19;5073569;28;20433;-81
2021/11/27 03:06:53;;;;;;;1.00;0.50;;;;;;;4.52;81.80;97562.13;5072655;28;20412;-81
2021/11/27 03:09:19;;;;;;;1.08;0.60;;;;;;;4.51;81.51;97568.59;5080562;28;20451;-81
2021/11/27 03:11:49;;;;;;;2.58;0.90;;;;;;;4.50;81.89;97569.66;5066749;28;21099;-81
2021/11/27 03:14:15;;;;;;;0.60;0.60;;;;;;;4.43;81.83;97572.66;5063165;28;20407;-81
2021/11/27 03:16:40;;;;;;;0.90;0.90;;;;;;;4.38;82.16;97574.56;5062453;28;20407;-81
2021/11/27 03:19:06;;;;;;;0.93;0.63;;;;;;;4.35;82.11;97572.41;5061883;28;20417;-81
2021/11/27 03:21:31;;;;;;;1.10;0.63;;;;;;;4.31;82.21;97568.69;5065379;28;20408;-80
2021/11/27 03:23:57;;;;;;;0.50;0.50;;;;;;;4.33;82.63;97579.91;5066043;28;20404;-81
2021/11/27 03:26:22;;;;;;;0.60;0.60;;;;;;;4.29;82.34;97585.03;5060273;28;20510;-81
2021/11/27 03:28:48;;;;;;;0.43;0.43;;;;;;;4.13;83.56;97576.25;5063058;28;20489;-82
2021/11/27 03:31:14;;;;;;;0.70;0.70;;;;;;;4.12;84.15;97579.19;5045630;28;20943;-81
2021/11/27 03:33:39;;;;;;;0.63;0.47;;;;;;;4.09;84.39;97577.06;5067068;28;20433;-81
2021/11/27 03:36:04;;;;;;;0.35;0.32;;;;;;;4.13;83.81;97576.25;5066055;28;20622;-80
2021/11/27 03:38:30;;;;;;;0.70;0.30;;;;;;;4.11;84.19;97578.41;5048733;28;20430;-81
2021/11/27 03:40:55;;;;;;;0.30;0.30;;;;;;;4.09;84.57;97577.06;5059921;28;20418;-80
2021/11/27 03:43:21;;;;;;;0.30;0.30;;;;;;;4.09;85.13;97572.50;5062897;28;20416;-81
2021/11/27 03:45:47;;;;;;;0.80;0.80;;;;;;;4.09;84.60;97571.69;5063424;28;20801;-81
2021/11/27 03:48:17;;;;;;;1.00;1.00;;;;;;;4.14;84.54;97575.19;5068971;28;20419;-80
2021/11/27 03:50:46;;;;;;;4.57;1.92;;;;;;;4.09;85.47;97574.38;5052114;28;20403;-81
2021/11/27 03:53:18;;;;;;;3.58;2.53;;;;;;;4.16;85.15;97580.25;5067177;28;20411;-80
2021/11/27 03:55:44;;;;;;;1.45;1.13;;;;;;;4.20;84.91;97581.31;5067636;28;20896;-80
2021/11/27 03:58:10;;;;;;;0.40;0.40;;;;;;;4.23;84.79;97578.09;5069949;28;20416;-80
2021/11/27 04:00:37;;;;;;;2.13;1.70;;;;;;;4.24;84.67;97582.38;5065769;28;20480;-81
2021/11/27 04:03:05;;;;;;;13.77;5.32;;;;;;;4.22;84.43;97575.66;5080404;28;20799;-80
2021/11/27 04:05:30;;;;;;;2.28;1.65;;;;;;;4.15;84.84;97581.31;5079729;28;20935;-80
2021/11/27 04:07:58;;;;;;;0.47;0.40;;;;;;;4.16;84.98;97572.22;5049071;28;20411;-80
2021/11/27 04:10:25;;;;;;;11.83;4.70;;;;;;;4.14;84.87;97577.88;5068883;28;20406;-80
2021/11/27 04:12:50;;;;;;;8.20;4.18;;;;;;;4.08;85.32;97578.94;5066068;28;20419;-80
2021/11/27 04:15:16;;;;;;;2.20;1.83;;;;;;;4.14;85.19;97577.06;5082420;28;20404;-80
2021/11/27 04:17:42;;;;;;;6.00;3.72;;;;;;;4.17;85.00;97585.34;5069300;28;20457;-80
2021/11/27 04:20:07;;;;;;;3.58;2.25;;;;;;;4.13;85.02;97583.47;5067966;28;20415;-80
2021/11/27 04:22:33;;;;;;;3.80;1.75;;;;;;;4.14;84.99;97585.09;5063293;28;20420;-80
2021/11/27 04:24:58;;;;;;;11.20;4.20;;;;;;;4.08;85.33;97584.28;5050703;28;22293;-80
2021/11/27 04:27:24;;;;;;;0.80;0.53;;;;;;;4.15;85.04;97581.31;5068913;28;20503;-80
2021/11/27 04:29:49;;;;;;;9.67;4.23;;;;;;;4.15;84.84;97578.63;5068538;28;20411;-80
2021/11/27 04:32:14;;;;;;;2.67;1.93;;;;;;;4.19;84.75;97587.75;5067157;28;20434;-80
2021/11/27 04:34:40;;;;;;;0.90;0.90;;;;;;;4.16;84.77;97575.69;5067636;28;20403;-81
2021/11/27 04:37:09;;;;;;;1.80;1.37;;;;;;;4.15;84.63;97582.13;5068878;28;20811;-80
2021/11/27 04:39:35;;;;;;;1.02;0.95;;;;;;;4.23;84.44;97575.41;5066185;28;20430;-81
2021/11/27 04:42:00;;;;;;;0.90;0.90;;;;;;;4.25;84.01;97577.81;5065192;28;20948;-80
2021/11/27 04:44:26;;;;;;;0.57;0.57;;;;;;;4.22;84.02;97573.78;5080669;28;20411;-80
2021/11/27 04:46:51;;;;;;;0.80;0.80;;;;;;;4.22;83.93;97568.44;5065161;28;20500;-81
2021/11/27 04:49:16;;;;;;;1.90;1.80;;;;;;;4.13;83.89;97573.56;5077989;28;20441;-81
2021/11/27 04:51:41;;;;;;;0.80;0.80;;;;;;;4.14;84.11;97577.06;5063148;28;21025;-81
2021/11/27 04:54:07;;;;;;;0.20;0.20;;;;;;;4.22;83.76;97579.16;5068891;28;20405;-80
2021/11/27 04:56:32;;;;;;;0.80;0.50;;;;;;;4.19;83.76;97585.06;5068140;28;20412;-81
2021/11/27 04:58:57;;;;;;;0.30;0.30;;;;;;;4.15;84.04;97578.63;5064257;28;20407;-80
2021/11/27 05:01:23;;;;;;;0.47;0.37;;;;;;;4.21;83.88;97585.63;5066457;28;20490;-80
2021/11/27 05:03:48;;;;;;;0.30;0.30;;;;;;;4.28;82.97;97588.00;5048313;28;20410;-80
2021/11/27 05:06:14;;;;;;;0.20;0.20;;;;;;;4.29;82.48;97592.25;5070453;28;20433;-80
2021/11/27 05:08:39;;;;;;;0.20;0.20;;;;;;;4.18;83.10;97599.56;5068693;28;20402;-81
2021/11/27 05:11:04;;;;;;;0.20;0.20;;;;;;;4.18;83.28;97597.66;5066894;28;20410;-80
2021/11/27 05:13:30;;;;;;;0.50;0.40;;;;;;;4.16;83.23;97594.47;5064467;28;20403;-80
2021/11/27 05:15:55;;;;;;;0.30;0.30;;;;;;;4.07;83.60;97589.94;5066794;28;20825;-81
2021/11/27 05:18:20;;;;;;;0.30;0.30;;;;;;;4.14;83.17;97598.50;5068989;28;20435;-81
2021/11/27 05:20:46;;;;;;;0.30;0.20;;;;;;;4.28;82.88;97599.50;5066122;28;20884;-80
2021/11/27 05:23:11;;;;;;;0.30;0.30;;;;;;;4.30;82.15;97601.91;5068542;28;20440;-81
2021/11/27 05:25:36;;;;;;;0.30;0.30;;;;;;;4.29;82.53;97609.16;5083216;28;20473;-80
2021/11/27 05:28:02;;;;;;;1.00;0.60;;;;;;;4.28;82.64;97604.84;5071240;28;20400;-81
2021/11/27 05:30:28;;;;;;;0.37;0.37;;;;;;;4.23;82.88;97612.13;5053560;28;20438;-80
2021/11/27 05:35:26;;;;;;;0.28;0.28;;;;;;;4.35;82.78;97609.94;5079289;28;20506;-80
2021/11/27 05:37:52;;;;;;;0.30;0.30;;;;;;;4.39;82.38;97608.31;5062505;28;20535;-79
2021/11/27 05:40:17;;;;;;;0.20;0.20;;;;;;;4.48;81.72;97622.78;5085860;28;20486;-80
2021/11/27 05:42:43;;;;;;;0.40;0.40;;;;;;;4.49;81.77;97627.03;5068567;28;20501;-79
2021/11/27 05:45:10;;;;;;;0.65;0.47;;;;;;;4.46;82.07;97625.72;5047877;28;20422;-79
2021/11/27 05:47:35;;;;;;;0.30;0.30;;;;;;;4.51;81.64;97625.69;5069480;28;20408;-79
2021/11/27 05:50:01;;;;;;;0.30;0.20;;;;;;;4.50;81.78;97617.94;5062953;28;20429;-79
2021/11/27 05:52:26;;;;;;;0.40;0.40;;;;;;;4.53;81.80;97625.44;5051776;28;20424;-79
2021/11/27 05:54:52;;;;;;;0.23;0.23;;;;;;;4.53;81.60;97622.75;5066461;28;20418;-80
2021/11/27 05:57:17;;;;;;;1.60;0.37;;;;;;;4.50;81.42;97623.28;5067237;28;20416;-80
2021/11/27 05:59:42;;;;;;;0.30;0.30;;;;;;;4.32;81.87;97618.53;5047150;28;20561;-79
2021/11/27 06:02:08;;;;;;;0.30;0.30;;;;;;;4.18;82.43;97612.97;5063004;28;20414;-80
2021/11/27 06:04:33;;;;;;;0.30;0.30;;;;;;;4.15;82.94;97616.16;5044955;28;20411;-79
2021/11/27 06:06:58;;;;;;;1.87;1.57;;;;;;;4.14;82.49;97609.22;5063290;28;20434;-80
2021/11/27 06:09:24;;;;;;;0.80;0.80;;;;;;;4.04;82.92;97617.28;5065487;28;20407;-79
2021/11/27 06:11:50;;;;;;;0.70;0.70;;;;;;;3.97;82.87;97616.75;5065465;28;20417;-79
2021/11/27 06:14:15;;;;;;;0.65;0.60;;;;;;;3.93;83.46;97613.81;5069067;28;20458;-80
2021/11/27 06:16:41;;;;;;;2.03;0.70;;;;;;;3.90;83.33;97624.25;5069603;28;20557;-79
2021/11/27 06:19:06;;;;;;;0.60;0.60;;;;;;;3.87;83.40;97625.63;5064491;28;20449;-79
2021/11/27 06:21:32;;;;;;;1.20;1.10;;;;;;;3.84;83.66;97636.06;5081805;28;20469;-79
2021/11/27 06:23:58;;;;;;;0.40;0.40;;;;;;;3.77;83.81;97628.31;5069365;28;20750;-80
2021/11/27 06:26:24;;;;;;;1.20;0.40;;;;;;;3.74;83.91;97633.41;5053591;28;20428;-80
2021/11/27 06:28:50;;;;;;;0.77;0.40;;;;;;;3.76;83.75;97636.59;5069529;28;20886;-80
2021/11/27 06:31:16;;;;;;;0.50;0.50;;;;;;;3.70;83.87;97638.50;5068148;28;22637;-79
2021/11/27 06:33:42;;;;;;;0.80;0.50;;;;;;;3.69;83.79;97633.41;5070288;28;20472;-80
2021/11/27 06:36:08;;;;;;;0.60;0.50;;;;;;;3.71;83.93;97642.78;5050256;28;20398;-80
2021/11/27 06:38:33;;;;;;;1.10;0.50;;;;;;;3.74;84.03;97644.09;5069742;28;20923;-80
2021/11/27 06:40:59;;;;;;;0.50;0.50;;;;;;;3.77;84.11;97652.41;5066644;28;20400;-80
2021/11/27 06:43:24;;;;;;;0.70;0.70;;;;;;;3.84;83.81;97646.78;5067092;28;21637;-80
2021/11/27 06:45:50;;;;;;;0.50;0.30;;;;;;;3.88;83.47;97650.53;5069591;28;20422;-80
2021/11/27 06:48:15;;;;;;;0.57;0.43;;;;;;;3.89;83.67;97660.16;5068513;28;20786;-79
2021/11/27 06:50:44;;;;;;;0.40;0.40;;;;;;;3.91;83.55;97660.72;5068247;28;20398;-79
2021/11/27 06:53:10;;;;;;;0.60;0.60;;;;;;;3.94;83.46;97655.63;5062933;28;20767;-79
2021/11/27 06:55:35;;;;;;;0.80;0.80;;;;;;;3.93;83.74;97680.78;5065792;28;20408;-80
2021/11/27 06:58:01;;;;;;;0.32;0.32;;;;;;;4.02;83.84;97670.31;5065084;28;20485;-79
2021/11/27 07:00:27;;;;;;;1.37;0.40;;;;;;;4.13;83.32;97679.97;5077768;28;20928;-79
2021/11/27 07:02:52;;;;;;;0.50;0.50;;;;;;;4.19;82.89;97686.91;5064931;28;20411;-79
2021/11/27 07:05:17;;;;;;;0.50;0.50;;;;;;;4.24;82.84;97684.25;5066785;28;20408;-80
2021/11/27 07:07:43;;;;;;;0.70;0.65;;;;;;;4.30;82.87;97688.50;5065517;28;20415;-79
2021/11/27 07:10:09;;;;;;;0.40;0.40;;;;;;;4.32;82.35;97696.28;5068276;28;20438;-79
2021/11/27 07:12:34;;;;;;;0.85;0.77;;;;;;;4.37;82.04;97696.28;5065899;28;20415;-79
2021/11/27 07:15:02;;;;;;;0.63;0.63;;;;;;;4.31;82.45;97708.91;5064679;28;20414;-79
2021/11/27 07:17:28;;;;;;;1.60;1.30;;;;;;;4.33;82.41;97705.94;5070617;28;20409;-79
2021/11/27 07:19:53;;;;;;;0.80;0.40;;;;;;;4.35;82.74;97709.13;5067821;28;20668;-79
2021/11/27 07:22:18;;;;;;;0.63;0.63;;;;;;;4.41;81.94;97710.75;5070625;28;20414;-80
2021/11/27 07:24:44;;;;;;;0.83;0.50;;;;;;;4.43;82.03;97720.13;5057775;28;20802;-78
2021/11/27 07:27:09;;;;;;;0.40;0.40;;;;;;;4.45;82.20;97727.88;5052630;28;20418;-80
2021/11/27 07:29:37;;;;;;;0.60;0.60;;;;;;;4.48;82.12;97727.34;5056416;28;20825;-80
2021/11/27 07:32:03;;;;;;;0.45;0.45;;;;;;;4.53;81.54;97733.50;5066627;28;20476;-80
2021/11/27 07:34:28;;;;;;;0.75;0.40;;;;;;;4.57;81.60;97747.19;5072609;28;20876;-80
2021/11/27 07:36:53;;;;;;;0.40;0.40;;;;;;;4.56;81.61;97748.25;5073475;28;20421;-80
2021/11/27 07:39:19;;;;;;;0.50;0.50;;;;;;;4.52;81.66;97758.72;5069692;28;20967;-79
2021/11/27 07:41:44;;;;;;;0.40;0.37;;;;;;;4.57;81.96;97755.22;5070946;28;20411;-79
2021/11/27 07:44:09;;;;;;;0.30;0.30;;;;;;;4.63;81.37;97754.94;5072017;28;20408;-79
2021/11/27 07:46:35;;;;;;;2.20;0.80;;;;;;;4.64;81.25;97755.75;5072792;28;20417;-80
2021/11/27 07:49:00;;;;;;;0.70;0.60;;;;;;;4.68;81.20;97759.47;5056665;28;20464;-79
2021/11/27 07:51:25;;;;;;;1.10;1.10;;;;;;;4.69;81.08;97758.41;5072415;28;20424;-79
2021/11/27 07:53:51;;;;;;;1.93;1.83;;;;;;;4.66;81.50;97778.53;5060579;28;20425;-80
2021/11/27 07:56:16;;;;;;;0.80;0.80;;;;;;;4.77;81.57;97767.78;5068775;28;20414;-82
2021/11/27 07:58:41;;;;;;;0.70;0.60;;;;;;;4.83;81.15;97780.91;5068879;28;20880;-79
2021/11/27 08:01:07;;;;;;;1.00;0.70;;;;;;;4.92;80.31;97784.63;5072880;28;20472;-79
2021/11/27 08:03:32;;;;;;;1.70;1.10;;;;;;;5.01;80.28;97784.88;5072713;28;22119;-81
2021/11/27 08:05:58;;;;;;;0.77;0.77;;;;;;;5.04;80.49;97787.81;5067112;28;20486;-80
2021/11/27 08:08:23;;;;;;;1.00;1.00;;;;;;;4.93;80.36;97791.63;5068895;28;21040;-80
2021/11/27 08:10:48;;;;;;;0.87;0.87;;;;;;;4.86;80.79;97787.59;5080851;28;20471;-79
2021/11/27 08:13:14;;;;;;;0.85;0.77;;;;;;;4.85;80.94;97794.03;5071681;28;20759;-80
2021/11/27 08:15:40;;;;;;;0.63;0.63;;;;;;;4.78;81.47;97796.19;5057884;28;21140;-80
2021/11/27 08:18:23;;;;;;;0.70;0.70;;;;;;;4.81;82.10;97803.72;5074782;28;20473;-79
2021/11/27 08:20:50;;;;;;;0.80;0.80;;;;;;;4.80;82.11;97802.91;5070736;28;20407;-80
2021/11/27 08:24:01;;;;;;;0.95;0.90;;;;;;;4.73;82.13;97807.75;5046999;28;20758;-79
2021/11/27 08:26:42;;;;;;;1.70;1.40;;;;;;;4.72;82.78;97814.19;5043367;28;20459;-80
2021/11/27 08:29:07;;;;;;;1.20;1.20;;;;;;;4.68;82.75;97821.16;5070481;28;20403;-80
2021/11/27 08:31:54;;;;;;;;;;;;;;;;;;;;;
2021/11/27 08:34:19;;;;;;;1.40;1.33;;;;;;;4.60;83.56;97821.72;5073308;28;20418;-81
2021/11/27 08:36:44;;;;;;;1.20;1.20;;;;;;;4.58;83.91;97826.53;5077653;28;20698;-81
2021/11/27 08:39:10;;;;;;;1.20;1.10;;;;;;;4.61;83.97;97832.19;5083750;28;20772;-81
2021/11/27 08:41:35;;;;;;;1.20;1.20;;;;;;;4.68;84.22;97829.22;5083680;28;20492;-81
2021/11/27 08:44:01;;;;;;;1.47;1.10;;;;;;;4.66;84.29;97837.56;5068271;28;21150;-82
2021/11/27 08:46:26;;;;;;;1.10;1.00;;;;;;;4.69;84.36;97838.88;5069096;28;20414;-81
2021/11/27 08:48:51;;;;;;;1.30;1.10;;;;;;;4.77;84.54;97846.41;5051240;28;20484;-79
2021/11/27 08:51:17;;;;;;;2.10;1.30;;;;;;;4.77;84.08;97845.59;5069962;28;20407;-80
2021/11/27 08:53:43;;;;;;;1.60;1.60;;;;;;;4.83;83.94;97841.81;5061226;28;20498;-80
2021/11/27 08:56:09;;;;;;;2.50;2.05;;;;;;;4.88;83.77;97847.97;5073014;28;20409;-80
2021/11/27 08:58:35;;;;;;;2.08;1.88;;;;;;;4.93;83.81;97855.22;5074896;28;20417;-80
2021/11/27 09:01:01;;;;;;;2.15;2.03;;;;;;;4.91;83.45;97858.16;5073447;28;20399;-80
2021/11/27 09:03:27;;;;;;;2.03;1.90;;;;;;;4.92;84.04;97864.34;5039466;28;20394;-81
2021/11/27 09:05:53;;;;;;;2.03;1.57;;;;;;;5.00;83.90;97861.09;5071911;28;20406;-80
2021/11/27 09:08:19;;;;;;;1.65;1.55;;;;;;;5.01;83.23;97863.50;5070805;28;20422;-80
2021/11/27 09:10:46;;;;;;;1.23;1.02;;;;;;;4.99;83.69;97868.34;5055345;28;20947;-81
2021/11/27 09:13:12;;;;;;;6.57;3.22;;;;;;;5.03;83.49;97874.78;5070024;28;20416;-80
2021/11/27 09:15:37;;;;;;;2.28;2.00;;;;;;;4.88;83.29;97865.94;5076024;28;20485;-80
2021/11/27 09:18:02;;;;;;;4.20;3.80;;;;;;;4.92;83.82;97867.81;5055163;28;20411;-80
2021/11/27 09:20:32;;;;;;;1.23;1.13;;;;;;;4.85;83.75;97872.66;5070201;28;20405;-80
2021/11/27 09:22:58;;;;;;;1.75;1.38;;;;;;;4.86;83.91;97876.16;5071363;28;20452;-80
2021/11/27 09:25:25;;;;;;;2.33;1.00;;;;;;;4.90;83.40;97878.03;5071116;28;20493;-79
2021/11/27 09:27:51;;;;;;;2.15;0.90;;;;;;;4.91;83.19;97878.81;5071504;28;20399;-81
2021/11/27 09:30:16;;;;;;;2.50;1.73;;;;;;;4.91;82.93;97882.31;5080484;28;20411;-80
2021/11/27 09:32:41;;;;;;;1.40;1.05;;;;;;;4.94;83.22;97884.44;5078700;28;20409;-80
2021/11/27 09:35:07;;;;;;;1.37;1.20;;;;;;;4.96;83.43;97889.56;5081170;28;20791;-80
2021/11/27 09:37:32;;;;;;;1.37;1.07;;;;;;;4.99;83.26;97891.69;5087260;28;20874;-80
2021/11/27 09:39:58;;;;;;;1.33;1.23;;;;;;;5.01;83.46;97893.03;5071651;28;20427;-79
2021/11/27 09:42:23;;;;;;;0.90;0.90;;;;;;;5.06;83.32;97887.66;5066658;28;20525;-80
2021/11/27 09:44:53;;;;;;;0.90;0.90;;;;;;;5.09;83.16;97892.50;5067317;28;20410;-80
2021/11/27 09:47:19;;;;;;;2.08;0.90;;;;;;;5.14;83.45;97897.03;5068397;28;20433;-80
2021/11/27 09:49:46;;;;;;;1.50;0.90;;;;;;;5.10;83.41;97902.13;5067051;28;20505;-80
2021/11/27 09:52:12;;;;;;;1.05;0.95;;;;;;;5.10;83.61;97904.81;5069632;28;20410;-80
2021/11/27 09:54:38;;;;;;;1.40;1.20;;;;;;;5.08;83.64;97903.47;5079532;28;20805;-79
2021/11/27 09:57:09;;;;;;;1.33;0.80;;;;;;;5.10;83.55;97909.41;5066468;28;20889;-79
2021/11/27 09:59:34;;;;;;;3.17;1.20;;;;;;;5.10;83.14;97910.19;5068528;28;20421;-79
2021/11/27 10:02:05;;;;;;;1.10;1.10;;;;;;;5.11;83.59;97916.38;5068951;28;20395;-81
2021/11/27 10:04:33;;;;;;;1.20;0.90;;;;;;;5.08;83.39;97914.22;5065630;28;20977;-81
2021/11/27 10:06:59;;;;;;;1.00;1.00;;;;;;;5.04;83.97;97919.31;5067269;28;20476;-79
2021/11/27 10:09:25;;;;;;;1.67;1.25;;;;;;;5.06;83.75;97924.44;5069193;28;20485;-78
2021/11/27 10:11:54;;;;;;;1.30;1.20;;;;;;;5.10;84.10;97918.25;5070087;28;20738;-78
2021/11/27 10:14:21;;;;;;;1.58;1.23;;;;;;;5.14;83.80;97924.69;5069208;28;20410;-75
2021/11/27 10:16:59;;;;;;;2.03;1.40;;;;;;;5.14;84.04;97922.00;5072236;28;20408;-76
2021/11/27 10:19:30;;;;;;;2.85;2.65;;;;;;;5.08;84.47;97925.78;5080205;28;20423;-77
2021/11/27 10:21:58;;;;;;;3.65;2.72;;;;;;;5.15;84.10;97930.84;5067457;28;20762;-76
2021/11/27 10:24:26;;;;;;;2.83;2.40;;;;;;;5.19;83.36;97935.44;5076688;28;20394;-76
2021/11/27 10:26:52;;;;;;;5.90;4.22;;;;;;;5.15;83.46;97930.84;5084876;28;20395;-76
2021/11/27 10:29:26;;;;;;;1.95;1.85;;;;;;;5.16;83.31;97937.84;5073209;28;20455;-76
2021/11/27 10:32:12;;;;;;;0.90;0.90;;;;;;;5.18;82.87;97935.69;5056481;28;20403;-76
2021/11/27 10:34:45;;;;;;;1.80;1.00;;;;;;;5.16;82.11;97935.16;5087247;28;20390;-76
2021/11/27 10:37:29;;;;;;;1.20;1.20;;;;;;;5.20;82.33;97937.00;5072417;28;20403;-76
2021/11/27 10:40:11;;;;;;;2.25;1.65;;;;;;;5.23;82.65;97941.06;5082571;28;20865;-76
2021/11/27 10:42:40;;;;;;;2.45;1.50;;;;;;;5.20;82.21;97939.69;5064688;28;20790;-76
2021/11/27 10:45:18;;;;;;;1.70;1.60;;;;;;;5.21;82.75;97944.00;5062453;28;20814;-76
2021/11/27 10:47:44;;;;;;;2.90;1.63;;;;;;;5.26;82.64;97951.25;5079685;28;20428;-76
2021/11/27 10:50:18;;;;;;;2.60;1.50;;;;;;;5.28;82.55;97949.09;5084677;28;20495;-76
2021/11/27 10:52:43;;;;;;;2.83;1.80;;;;;;;5.34;82.41;97952.56;5075541;28;20398;-76
2021/11/27 10:55:22;;;;;;;1.60;1.20;;;;;;;5.39;82.19;97952.56;5084418;28;20413;-76
2021/11/27 10:57:49;;;;;;;1.95;1.10;;;;;;;5.40;82.11;97957.66;5066103;28;20799;-76
2021/11/27 11:00:34;;;;;;;1.73;1.60;;;;;;;5.44;82.29;97963.28;5085386;28;20521;-76
2021/11/27 11:03:01;;;;;;;1.30;1.25;;;;;;;5.44;82.04;97963.28;5062030;28;20405;-75
2021/11/27 11:05:33;;;;;;;2.53;1.70;;;;;;;5.50;82.30;97963.00;5089046;28;20400;-76
2021/11/27 11:07:59;;;;;;;2.50;1.17;;;;;;;5.60;82.10;97967.53;5068623;28;20396;-76
2021/11/27 11:10:33;;;;;;;1.40;1.30;;;;;;;5.62;81.97;97963.53;5091855;28;20484;-75
2021/11/27 11:13:00;;;;;;;1.27;1.23;;;;;;;5.64;82.27;97958.69;5092998;28;20405;-75
2021/11/27 11:15:39;;;;;;;1.50;1.40;;;;;;;5.72;82.11;97957.31;5081750;28;20395;-75
2021/11/27 11:18:21;;;;;;;1.70;1.40;;;;;;;5.78;81.23;97958.91;5072666;28;20762;-76
2021/11/27 11:20:56;;;;;;;1.67;1.58;;;;;;;5.77;80.98;97965.34;5051397;28;20520;-75
2021/11/27 11:23:22;;;;;;;1.80;1.70;;;;;;;5.68;81.55;97962.44;5071457;28;20920;-75
2021/11/27 11:26:11;;;;;;;1.30;1.20;;;;;;;5.67;81.44;97958.13;5070658;28;20415;-75
2021/11/27 11:28:47;;;;;;;1.07;1.07;;;;;;;5.67;81.05;97968.88;5072691;28;20412;-75
2021/11/27 11:31:16;;;;;;;3.05;2.60;;;;;;;5.57;80.58;97974.28;5059757;28;20906;-76
2021/11/27 11:33:46;;;;;;;2.63;1.80;;;;;;;5.54;81.46;97979.38;5072725;28;20753;-75
2021/11/27 11:36:13;;;;;;;4.25;1.70;;;;;;;5.51;81.11;97990.69;5070504;28;20414;-76
2021/11/27 11:38:45;;;;;;;1.95;1.40;;;;;;;5.42;80.82;97987.75;5054534;28;20886;-76
2021/11/27 11:41:12;;;;;;;2.63;1.90;;;;;;;5.37;81.95;97993.13;5073020;28;20443;-75
2021/11/27 11:43:38;;;;;;;2.10;1.77;;;;;;;5.51;81.70;97994.16;5087722;28;20420;-76
2021/11/27 11:46:04;;;;;;;2.20;1.30;;;;;;;5.59;81.05;97987.44;5072134;28;20732;-76